神戸空港の過去48時間の天気

神戸空港 (Kobe)

現在時刻: 9/16 12:08 JST (9/16 03:08 UTC) 以下の時間は現地時間です。

過去48時間のMETAR気象情報
時間 風向 風速(m/s) 視程 気温(℃) 湿度(%) 気圧(hPa) 天気現象
16 11:00 4 10km以上 28 66 1003
16 10:00 3 10km以上 28 66 1003
16 09:00 南南西 4 10km以上 27 70 1004
16 08:00 南西 3 10km以上 26 70 1004
16 07:00 3 10km以上 26 74 1004
15 21:00 北東 6 10km以上 27 62 1006
15 20:00 北東 5 10km以上 28 58 1005
15 19:00 北北東 5 10km以上 28 55 1005
15 18:00 北北東 6 10km以上 30 49 1004
15 17:00 北北東 6 10km以上 31 49 1004
15 16:00 西 5 10km以上 30 59 1004
15 15:00 西 5 10km以上 30 59 1005
15 14:00 西南西 3 10km以上 29 62 1005
15 13:00 南西 3 10km以上 29 62 1006
15 12:00 東南東 4 10km以上 29 58 1007
15 11:00 東南東 3 10km以上 28 62 1008
15 10:00 北東 5 10km以上 28 58 1008
15 09:00 北東 5 10km以上 27 62 1009
15 08:00 北東 5 10km以上 26 65 1009
15 07:00 北東 6 10km以上 25 69 1009
14 21:00 3 10km以上 26 74 1010
14 20:00 南南西 4 10km以上 26 79 1010
14 19:00 5 10km以上 27 74 1009
14 18:00 5 10km以上 28 66 1009
14 17:00 西 2 10km以上 29 62 1009
14 16:00 西 3 10km以上 29 62 1008
14 15:00 南東 2 10km以上 30 55 1008
14 14:00 北東 3 10km以上 30 49 1009
14 13:00 北東 4 10km以上 30 49 1010
RJBE 160200Z 18007KT 9999 FEW030 28/21 Q1003
RJBE 160100Z 17005KT 9999 FEW030 28/21 Q1003
RJBE 160000Z 20007KT 9999 FEW030 27/21 Q1004
RJBE 152300Z 22006KT 9999 FEW025 26/20 Q1004
RJBE 152200Z 17006KT 9999 FEW025 26/21 Q1004
RJBE 151200Z 05011KT 9999 FEW035 27/19 Q1006
RJBE 151100Z 04009KT 9999 FEW035 28/19 Q1005
RJBE 151000Z 03010KT 9999 FEW035 28/18 Q1005
RJBE 150900Z 03012KT 9999 FEW035 30/18 Q1004
RJBE 150800Z 02012KT 9999 FEW035 SCT060 31/19 Q1004
RJBE 150700Z 26009KT 9999 FEW035 BKN060 30/21 Q1004
RJBE 150600Z 27009KT 9999 FEW035 SCT060 30/21 Q1005
RJBE 150500Z 25005KT 9999 FEW035 29/21 Q1005
RJBE 150400Z 23006KT 9999 FEW035 29/21 Q1006
RJBE 150300Z 11007KT 9999 FEW030 29/20 Q1007
RJBE 150200Z 11006KT 9999 FEW030 28/20 Q1008
RJBE 150100Z 05009KT 9999 FEW020 28/19 Q1008
RJBE 150000Z 05010KT CAVOK 27/19 Q1009
RJBE 142300Z 05010KT CAVOK 26/19 Q1009
RJBE 142200Z 05011KT CAVOK 25/19 Q1009
RJBE 141200Z 19005KT 9999 FEW045 26/21 Q1010
RJBE 141100Z 20007KT 9999 FEW045 SCT070 26/22 Q1010
RJBE 141000Z 09009KT 9999 FEW030 BKN050 27/22 Q1009
RJBE 140900Z 08009KT 9999 FEW030 BKN050 28/21 Q1009
RJBE 140800Z 27004KT 230V350 9999 FEW030 SCT045 BKN060 29/21 Q1009
RJBE 140700Z 26006KT 9999 FEW035 BKN045 29/21 Q1008
RJBE 140600Z 14004KT 100V160 9999 FEW040 30/20 Q1008
RJBE 140500Z 04005KT 9999 FEW040 30/18 Q1009
RJBE 140400Z 05007KT 9999 FEW035 30/18 Q1010